Time;durP1;ratioP1;P1;durP2;ratioP2;P2;SDS_P1;SDS_P2;PMS_P1;PMS_P2;Temp;Humidity;BMP_temperature;BMP_pressure;BME280_temperature;BME280_humidity;BME280_pressure;Samples;Min_cycle;Max_cycle;Signal;HPM_P1;HPM_P2
2021/06/11 00:01:00;;;;;;;17.80;14.67;;;18.20;99.90;;;;;;6136668;23;20285;-67
2021/06/11 00:03:25;;;;;;;15.87;13.93;;;18.10;1.00;;;;;;6136782;23;20154;-67
2021/06/11 00:05:51;;;;;;;17.97;15.00;;;18.20;39.00;;;;;;6136835;23;20166;-67
2021/06/11 00:08:16;;;;;;;19.70;16.27;;;18.10;99.90;;;;;;6136375;23;20163;-67
2021/06/11 00:10:42;;;;;;;17.13;15.27;;;18.10;99.90;;;;;;6150229;23;20182;-67
2021/06/11 00:13:08;;;;;;;19.70;14.37;;;18.10;99.90;;;;;;6149988;23;20162;-67
2021/06/11 00:15:34;;;;;;;18.03;12.83;;;18.10;1.00;;;;;;6137159;23;20438;-67
2021/06/11 00:18:00;;;;;;;16.07;13.30;;;18.00;1.00;;;;;;6136475;23;20386;-67
2021/06/11 00:20:26;;;;;;;15.97;11.80;;;18.00;99.90;;;;;;6126631;23;20159;-67
2021/06/11 00:22:52;;;;;;;13.50;11.20;;;18.00;1.00;;;;;;6136699;23;20508;-67
2021/06/11 00:25:22;;;;;;;16.50;12.53;;;17.90;1.00;;;;;;6136549;23;20830;-67
2021/06/11 00:27:48;;;;;;;13.40;11.93;;;17.90;1.00;;;;;;6136640;23;20453;-67
2021/06/11 00:30:15;;;;;;;14.63;11.90;;;17.90;1.00;;;;;;6136631;23;20897;-67
2021/06/11 00:32:41;;;;;;;14.37;12.73;;;18.00;1.00;;;;;;6136685;23;20238;-67
2021/06/11 00:35:07;;;;;;;15.40;12.90;;;17.90;1.00;;;;;;6136551;23;20821;-67
2021/06/11 00:37:33;;;;;;;14.80;11.80;;;17.90;1.00;;;;;;6136488;23;20183;-67
2021/06/11 00:39:59;;;;;;;13.73;11.60;;;17.90;1.00;;;;;;6136324;23;20395;-67
2021/06/11 00:42:27;;;;;;;12.63;11.30;;;17.90;1.00;;;;;;6136612;23;20159;-68
2021/06/11 00:44:52;;;;;;;16.67;12.57;;;17.80;1.00;;;;;;6150156;23;20159;-68
2021/06/11 00:47:18;;;;;;;16.63;12.57;;;17.60;25.70;;;;;;6136407;23;20461;-68
2021/06/11 00:49:44;;;;;;;15.70;12.70;;;17.70;82.70;;;;;;6136752;23;20159;-68
2021/06/11 00:52:10;;;;;;;15.63;11.40;;;17.60;66.60;;;;;;6136875;23;20162;-67
2021/06/11 00:54:36;;;;;;;12.13;10.80;;;17.60;99.90;;;;;;6126618;23;20398;-68
2021/06/11 00:57:02;;;;;;;11.83;10.60;;;17.60;99.90;;;;;;6126837;23;20729;-67
2021/06/11 00:59:29;;;;;;;13.87;11.47;;;17.70;99.90;;;;;;6149813;23;20395;-67
2021/06/11 01:01:54;;;;;;;11.80;10.60;;;17.70;71.20;;;;;;6136535;23;20473;-67
2021/06/11 01:04:20;;;;;;;12.57;11.00;;;17.60;72.50;;;;;;6136360;23;20418;-67
2021/06/11 01:06:48;;;;;;;12.50;11.20;;;17.50;99.90;;;;;;6136270;23;20237;-67
2021/06/11 01:09:14;;;;;;;12.53;11.20;;;17.50;99.90;;;;;;6136406;23;20464;-67
2021/06/11 01:11:42;;;;;;;17.23;12.73;;;17.30;99.90;;;;;;6136538;23;20394;-67
2021/06/11 01:14:09;;;;;;;17.60;13.23;;;17.40;99.90;;;;;;6138072;23;20771;-67
2021/06/11 01:16:35;;;;;;;14.43;12.80;;;17.50;99.90;;;;;;6137983;23;20853;-67
2021/06/11 01:19:02;;;;;;;18.23;15.40;;;17.50;99.90;;;;;;6137987;23;20393;-68
2021/06/11 01:21:31;;;;;;;16.83;14.67;;;17.50;99.90;;;;;;6137951;23;20825;-67
2021/06/11 01:23:59;;;;;;;19.53;16.93;;;17.60;99.90;;;;;;6138056;23;20415;-67
2021/06/11 01:26:35;;;;;;;18.27;15.60;;;17.40;99.90;;;;;;6138051;23;20710;-68
2021/06/11 01:29:13;;;;;;;21.13;16.83;;;17.40;1.00;;;;;;6137911;23;20826;-68
2021/06/11 01:31:41;;;;;;;19.50;17.50;;;17.30;1.00;;;;;;6138076;23;20403;-67
2021/06/11 01:34:13;;;;;;;21.83;16.37;;;17.30;1.00;;;;;;6137999;23;20414;-67
2021/06/11 01:37:02;;;;;;;21.73;17.13;;;17.40;1.00;;;;;;6137863;23;20442;-67
2021/06/11 01:39:30;;;;;;;19.73;17.60;;;17.40;1.00;;;;;;6138044;23;20446;-67
2021/06/11 01:41:57;;;;;;;22.50;18.30;;;17.50;1.00;;;;;;6138064;23;20449;-67
2021/06/11 01:44:24;;;;;;;20.97;16.03;;;17.40;1.00;;;;;;6137974;23;20405;-67
2021/06/11 01:46:54;;;;;;;21.90;17.80;;;17.30;1.00;;;;;;6137789;23;20885;-67
2021/06/11 01:49:20;;;;;;;22.80;17.37;;;17.40;1.00;;;;;;6138042;23;20694;-67
2021/06/11 01:51:48;;;;;;;20.40;18.10;;;17.50;1.00;;;;;;6137988;23;20401;-68
2021/06/11 01:54:14;;;;;;;19.43;16.97;;;17.50;1.00;;;;;;6137775;23;20395;-67
2021/06/11 01:56:41;;;;;;;21.70;19.20;;;17.60;1.00;;;;;;6137472;23;20509;-67
2021/06/11 01:59:07;;;;;;;23.03;17.63;;;17.50;1.00;;;;;;6137590;23;20405;-68
2021/06/11 02:01:34;;;;;;;22.80;18.67;;;17.50;1.00;;;;;;6137822;23;20833;-68
2021/06/11 02:04:01;;;;;;;21.43;19.03;;;17.50;1.00;;;;;;6137816;23;20393;-67
2021/06/11 02:06:28;;;;;;;22.93;19.80;;;17.50;1.00;;;;;;6137638;23;20885;-67
2021/06/11 02:08:54;;;;;;;25.40;21.30;;;17.40;1.00;;;;;;6137500;23;20387;-67
2021/06/11 02:11:21;;;;;;;29.03;22.03;;;17.40;1.00;;;;;;6137377;23;20386;-67
2021/06/11 02:13:49;;;;;;;30.30;24.57;;;17.40;1.00;;;;;;6137626;23;20390;-68
2021/06/11 02:16:17;;;;;;;29.43;24.33;;;17.40;1.00;;;;;;6137649;23;20445;-68
2021/06/11 02:18:43;;;;;;;35.53;27.50;;;17.60;1.00;;;;;;6137294;23;20741;-68
2021/06/11 02:21:10;;;;;;;35.33;27.17;;;17.60;1.00;;;;;;6137646;23;20682;-67
2021/06/11 02:23:36;;;;;;;34.40;28.60;;;17.60;1.00;;;;;;6137743;23;20389;-67
2021/06/11 02:26:09;;;;;;;36.73;26.00;;;17.60;1.00;;;;;;6151327;23;20398;-67
2021/06/11 02:28:34;;;;;;;35.53;27.60;;;17.50;1.00;;;;;;6137387;23;20379;-67
2021/06/11 02:31:01;;;;;;;34.67;27.23;;;17.60;1.00;;;;;;6137683;23;20481;-68
2021/06/11 02:33:27;;;;;;;28.20;24.17;;;17.50;1.00;;;;;;6137940;23;20169;-67
2021/06/11 02:35:53;;;;;;;25.57;19.30;;;17.40;1.00;;;;;;6137661;23;20426;-67
2021/06/11 02:38:19;;;;;;;23.30;17.87;;;17.40;1.00;;;;;;6137463;23;20382;-67
2021/06/11 02:40:45;;;;;;;21.10;18.17;;;17.50;1.00;;;;;;6137540;23;20398;-67
2021/06/11 02:43:13;;;;;;;25.20;19.80;;;17.40;1.00;;;;;;6151229;23;20398;-67
2021/06/11 02:45:50;;;;;;;22.37;19.50;;;17.40;1.00;;;;;;6137643;23;20177;-67
2021/06/11 02:48:32;;;;;;;21.60;19.30;;;17.40;1.00;;;;;;6137658;23;20371;-67
2021/06/11 02:51:02;;;;;;;22.90;19.10;;;17.20;1.00;;;;;;6137446;23;20375;-67
2021/06/11 02:53:29;;;;;;;21.17;17.97;;;17.30;1.00;;;;;;6127857;23;20390;-67
2021/06/11 02:56:01;;;;;;;25.17;19.70;;;17.30;1.00;;;;;;6127131;23;20434;-67
2021/06/11 02:58:39;;;;;;;21.47;19.00;;;17.40;1.00;;;;;;6136911;23;20371;-67
2021/06/11 03:01:06;;;;;;;22.03;17.90;;;17.40;1.00;;;;;;6137410;23;20374;-67
2021/06/11 03:03:35;;;;;;;24.23;19.47;;;17.40;1.00;;;;;;6137214;23;20394;-68
2021/06/11 03:06:03;;;;;;;23.47;19.27;;;17.40;1.00;;;;;;6137099;23;20854;-67
2021/06/11 03:08:31;;;;;;;22.10;18.57;;;17.40;1.00;;;;;;6136791;23;20399;-67
2021/06/11 03:11:03;;;;;;;25.50;20.03;;;17.50;1.00;;;;;;6136732;23;20469;-68
2021/06/11 03:13:30;;;;;;;28.87;22.47;;;17.50;1.00;;;;;;6136904;23;20370;-67
2021/06/11 03:15:57;;;;;;;30.67;21.43;;;17.60;1.00;;;;;;6136857;23;20508;-68
2021/06/11 03:18:35;;;;;;;30.17;24.87;;;17.60;1.00;;;;;;6136669;23;20818;-67
2021/06/11 03:21:23;;;;;;;33.03;25.73;;;17.70;1.00;;;;;;6150602;23;20391;-68
2021/06/11 03:23:57;;;;;;;33.00;25.23;;;17.80;1.00;;;;;;6136993;23;20383;-68
2021/06/11 03:26:51;;;;;;;39.77;28.17;;;17.80;1.00;;;;;;6136903;23;20678;-68
2021/06/11 03:29:29;;;;;;;38.53;27.90;;;17.80;1.00;;;;;;6136738;23;20406;-67
2021/06/11 03:31:59;;;;;;;33.73;27.00;;;17.90;1.00;;;;;;6136901;23;20485;-67
2021/06/11 03:34:30;;;;;;;32.47;26.50;;;17.90;1.00;;;;;;6136458;23;20415;-67
2021/06/11 03:36:57;;;;;;;37.87;27.53;;;17.80;1.00;;;;;;6136732;23;20861;-67
2021/06/11 03:39:30;;;;;;;35.00;27.27;;;17.80;1.00;;;;;;6136759;23;20415;-67
2021/06/11 03:41:56;;;;;;;32.90;25.20;;;18.00;1.00;;;;;;6136949;23;20849;-67
2021/06/11 03:44:23;;;;;;;34.00;26.63;;;18.00;1.00;;;;;;6136968;23;20410;-67
2021/06/11 03:46:50;;;;;;;35.20;28.47;;;18.00;1.00;;;;;;6137071;23;20396;-67
2021/06/11 03:49:19;;;;;;;35.60;28.27;;;18.20;1.00;;;;;;6136687;23;20848;-68
2021/06/11 03:51:45;;;;;;;34.30;28.37;;;18.40;1.00;;;;;;6136952;23;20382;-67
2021/06/11 03:54:13;;;;;;;36.73;29.13;;;18.60;1.00;;;;;;6137109;23;20481;-67
2021/06/11 03:56:39;;;;;;;34.50;28.03;;;18.60;1.00;;;;;;6136651;23;20422;-67
2021/06/11 03:59:10;;;;;;;36.17;28.90;;;18.70;1.00;;;;;;6150279;23;20461;-67
2021/06/11 04:01:42;;;;;;;36.73;29.57;;;19.20;1.00;;;;;;6136945;23;20375;-67
2021/06/11 04:04:08;;;;;;;33.10;26.80;;;19.80;99.90;;;;;;6137134;23;20821;-67
2021/06/11 04:06:39;;;;;;;33.30;26.83;;;20.60;1.00;;;;;;6136498;23;20409;-67
2021/06/11 04:09:12;;;;;;;28.40;24.30;;;21.70;1.00;;;;;;6136754;23;20139;-66
2021/06/11 04:11:45;;;;;;;32.50;25.40;;;22.70;99.90;;;;;;6136736;23;20481;-67
2021/06/11 04:14:24;;;;;;;32.03;23.37;;;23.60;1.00;;;;;;6136741;23;20410;-67
2021/06/11 04:16:51;;;;;;;34.40;27.63;;;24.30;99.90;;;;;;6125525;23;20932;-67
2021/06/11 04:19:24;;;;;;;34.87;31.20;;;25.00;99.90;;;;;;6136609;23;20393;-67
2021/06/11 04:21:52;;;;;;;33.10;29.47;;;25.20;50.50;;;;;;6136813;23;20469;-67
2021/06/11 04:24:24;;;;;;;31.33;25.20;;;25.60;1.00;;;;;;6150087;23;20394;-67
2021/06/11 04:26:53;;;;;;;26.70;22.77;;;26.20;1.00;;;;;;6136566;23;20406;-67
2021/06/11 04:29:21;;;;;;;29.60;26.00;;;26.70;1.00;;;;;;6136823;23;20386;-68
2021/06/11 04:31:50;;;;;;;28.50;24.67;;;27.10;1.00;;;;;;6136357;23;20421;-67
2021/06/11 04:34:16;;;;;;;30.53;25.97;;;27.40;1.00;;;;;;6136680;23;20387;-68
2021/06/11 04:36:44;;;;;;;30.03;26.80;;;28.00;1.00;;;;;;6136468;23;20426;-68
2021/06/11 04:39:09;;;;;;;30.60;26.13;;;28.60;1.00;;;;;;6136352;23;20845;-67
2021/06/11 04:41:36;;;;;;;28.57;25.40;;;29.20;1.00;;;;;;6125597;23;20399;-67
2021/06/11 04:44:04;;;;;;;29.00;24.63;;;29.20;1.00;;;;;;6136835;23;20198;-67
2021/06/11 04:46:30;;;;;;;26.77;23.97;;;29.50;1.00;;;;;;6137597;23;20445;-68
2021/06/11 04:48:55;;;;;;;28.60;24.60;;;29.50;1.00;;;;;;6151814;23;20406;-67
2021/06/11 04:51:22;;;;;;;26.90;24.00;;;30.10;1.00;;;;;;6152105;23;20484;-67
2021/06/11 04:53:47;;;;;;;27.20;24.40;;;31.10;1.00;;;;;;6138358;23;20162;-67
2021/06/11 04:56:13;;;;;;;29.13;24.57;;;31.20;1.00;;;;;;6138195;23;20784;-67
2021/06/11 04:58:40;;;;;;;25.67;22.90;;;32.00;1.00;;;;;;6127178;23;20155;-68
2021/06/11 05:01:07;;;;;;;28.83;24.00;;;32.30;1.00;;;;;;6138221;23;20405;-68
2021/06/11 05:03:33;;;;;;;27.17;24.17;;;32.50;1.00;;;;;;6138407;23;20411;-68
2021/06/11 05:06:04;;;;;;;27.17;24.20;;;31.10;1.00;;;;;;6138263;23;20431;-68
2021/06/11 05:08:30;;;;;;;25.43;22.90;;;29.70;1.00;;;;;;6138372;23;20401;-67
2021/06/11 05:10:55;;;;;;;27.63;23.37;;;30.60;1.00;;;;;;6138206;23;20814;-68
2021/06/11 05:13:22;;;;;;;25.07;22.37;;;31.80;1.00;;;;;;6138629;23;20155;-68
2021/06/11 05:15:47;;;;;;;26.40;21.83;;;32.30;1.00;;;;;;6138052;23;20269;-67
2021/06/11 05:18:13;;;;;;;22.73;20.30;;;32.60;1.00;;;;;;6138014;23;20426;-66
2021/06/11 05:20:39;;;;;;;22.20;19.87;;;33.10;1.00;;;;;;6138235;23;20536;-67
2021/06/11 05:23:06;;;;;;;20.13;16.27;;;33.20;1.00;;;;;;6128853;23;20205;-67
2021/06/11 05:25:32;;;;;;;17.43;15.47;;;33.70;1.00;;;;;;6138219;23;20163;-66
2021/06/11 05:27:58;;;;;;;15.97;14.07;;;33.40;1.00;;;;;;6138126;23;20466;-67
2021/06/11 05:30:25;;;;;;;13.57;12.17;;;33.80;1.00;;;;;;6151869;23;20441;-67
2021/06/11 05:32:51;;;;;;;11.07;8.60;;;34.20;1.00;;;;;;6138243;23;20499;-67
2021/06/11 05:35:17;;;;;;;11.23;10.13;;;34.20;1.00;;;;;;6138010;23;20406;-67
2021/06/11 05:37:43;;;;;;;11.40;10.33;;;34.80;1.00;;;;;;6137921;23;20462;-67
2021/06/11 05:40:09;;;;;;;9.70;8.60;;;35.40;1.00;;;;;;6138134;23;20779;-67
2021/06/11 05:42:34;;;;;;;10.40;9.40;;;35.60;1.00;;;;;;6137764;23;20573;-67
2021/06/11 05:45:01;;;;;;;12.97;11.60;;;35.90;1.00;;;;;;6137853;23;20401;-67
2021/06/11 05:47:26;;;;;;;14.23;11.23;;;36.30;1.00;;;;;;6137942;23;20677;-68
2021/06/11 05:49:52;;;;;;;12.80;11.60;;;35.70;1.00;;;;;;6137588;23;20414;-68
2021/06/11 05:52:18;;;;;;;12.97;11.57;;;36.00;1.00;;;;;;6137607;23;20683;-68
2021/06/11 05:54:44;;;;;;;13.13;11.80;;;36.30;1.00;;;;;;6137724;23;20472;-68
2021/06/11 05:57:10;;;;;;;12.60;11.30;;;35.20;1.00;;;;;;6137164;23;20605;-68
2021/06/11 05:59:35;;;;;;;11.83;10.73;;;35.70;1.00;;;;;;6137384;23;20230;-68
2021/06/11 06:02:01;;;;;;;11.40;10.30;;;35.90;1.00;;;;;;6137729;23;20150;-68
2021/06/11 06:04:26;;;;;;;14.10;10.47;;;36.70;1.00;;;;;;6126624;23;20174;-68
2021/06/11 06:06:52;;;;;;;11.83;10.80;;;36.30;1.00;;;;;;6137256;23;20439;-68
2021/06/11 06:09:18;;;;;;;11.37;10.27;;;36.00;1.00;;;;;;6137272;23;20155;-68
2021/06/11 06:11:43;;;;;;;9.80;8.90;;;36.30;1.00;;;;;;6137123;23;20470;-67
2021/06/11 06:14:09;;;;;;;7.73;6.93;;;36.60;1.00;;;;;;6136729;23;20490;-67
2021/06/11 06:16:37;;;;;;;7.83;7.13;;;35.60;1.00;;;;;;6136750;23;20461;-68
2021/06/11 06:19:03;;;;;;;7.33;6.63;;;36.50;1.00;;;;;;6137039;23;20254;-68
2021/06/11 06:21:30;;;;;;;6.40;5.83;;;37.50;1.00;;;;;;6137368;23;20386;-68
2021/06/11 06:23:57;;;;;;;11.17;6.03;;;37.30;1.00;;;;;;6151215;23;20410;-68
2021/06/11 06:26:23;;;;;;;6.00;4.83;;;36.50;1.00;;;;;;6137317;23;20390;-68
2021/06/11 06:28:49;;;;;;;4.70;3.90;;;36.30;1.00;;;;;;6136744;23;20526;-68
2021/06/11 06:31:14;;;;;;;4.83;4.43;;;36.00;1.00;;;;;;6136911;23;20158;-68
2021/06/11 06:33:40;;;;;;;6.47;5.00;;;35.20;1.00;;;;;;6137235;23;20166;-68
2021/06/11 06:36:08;;;;;;;4.50;4.10;;;35.70;1.00;;;;;;6150628;23;20586;-68
2021/06/11 06:38:33;;;;;;;5.00;4.60;;;35.80;1.00;;;;;;6137107;23;20139;-67
2021/06/11 06:41:00;;;;;;;4.90;4.40;;;36.20;1.00;;;;;;6137404;23;20752;-68
2021/06/11 06:43:27;;;;;;;4.33;4.00;;;36.40;1.00;;;;;;6137375;23;20158;-68
2021/06/11 06:45:52;;;;;;;6.07;4.60;;;35.50;1.00;;;;;;6151053;23;20745;-68
2021/06/11 06:48:18;;;;;;;6.27;5.77;;;35.10;1.00;;;;;;6136673;23;20426;-71
2021/06/11 06:50:44;;;;;;;5.10;4.70;;;36.10;1.00;;;;;;6137740;23;20151;-69
2021/06/11 06:53:11;;;;;;;5.97;5.37;;;36.20;1.00;;;;;;6137634;23;20531;-68
2021/06/11 06:55:37;;;;;;;4.80;4.30;;;36.60;1.00;;;;;;6137039;23;20187;-68
2021/06/11 06:58:05;;;;;;;7.33;4.20;;;36.90;1.00;;;;;;6137348;23;20394;-67
2021/06/11 07:00:31;;;;;;;5.70;4.40;;;37.50;1.00;;;;;;6135831;23;20387;-70
2021/06/11 07:02:56;;;;;;;6.23;4.57;;;38.60;1.00;;;;;;6137401;23;20726;-68
2021/06/11 07:05:22;;;;;;;5.70;4.60;;;39.00;1.00;;;;;;6137286;23;20160;-70
2021/06/11 07:07:47;;;;;;;8.57;7.77;;;38.70;1.00;;;;;;6137381;23;20197;-70
2021/06/11 07:10:13;;;;;;;8.40;6.20;;;38.30;1.00;;;;;;6136924;23;20155;-69
2021/06/11 07:12:39;;;;;;;4.43;4.13;;;38.60;1.00;;;;;;6137268;23;20625;-68
2021/06/11 07:15:07;;;;;;;5.63;5.03;;;38.00;1.00;;;;;;6137635;23;20175;-68
2021/06/11 07:17:33;;;;;;;6.67;6.07;;;37.40;1.00;;;;;;6136114;23;20909;-70
2021/06/11 07:19:58;;;;;;;7.30;6.60;;;37.80;1.00;;;;;;6137215;23;20414;-70
2021/06/11 07:22:24;;;;;;;3.87;3.57;;;37.60;1.00;;;;;;6137414;23;20238;-68
2021/06/11 07:24:50;;;;;;;4.80;4.40;;;35.30;1.00;;;;;;6137687;23;20151;-68
2021/06/11 07:27:15;;;;;;;4.40;4.03;;;35.60;1.00;;;;;;6150838;23;20470;-68
2021/06/11 07:29:44;;;;;;;3.97;3.27;;;34.50;1.00;;;;;;6137250;23;20162;-69
2021/06/11 07:32:11;;;;;;;4.10;3.70;;;34.20;1.00;;;;;;6136597;23;20154;-69
2021/06/11 07:34:38;;;;;;;5.47;4.10;;;33.80;1.00;;;;;;6137016;23;20465;-68
2021/06/11 07:37:04;;;;;;;2.90;2.70;;;32.90;1.00;;;;;;6136964;23;20427;-65
2021/06/11 07:39:30;;;;;;;4.10;2.80;;;32.00;1.00;;;;;;6136589;23;20390;-67
2021/06/11 07:41:55;;;;;;;5.03;4.53;;;30.90;1.00;;;;;;6137023;23;20391;-68
2021/06/11 07:44:22;;;;;;;5.87;4.30;;;29.70;1.00;;;;;;6136896;23;20438;-67
2021/06/11 07:46:48;;;;;;;4.23;3.90;;;27.50;1.00;;;;;;6135918;23;20158;-67
2021/06/11 07:49:14;;;;;;;4.40;4.00;;;26.10;1.00;;;;;;6150591;23;20400;-67
2021/06/11 07:51:40;;;;;;;4.67;4.17;;;26.10;1.00;;;;;;6150777;23;20167;-68
2021/06/11 07:54:07;;;;;;;4.43;4.03;;;26.10;1.00;;;;;;6137458;23;20386;-68
2021/06/11 07:56:33;;;;;;;3.40;3.10;;;26.40;1.00;;;;;;6137063;23;20509;-68
2021/06/11 07:58:59;;;;;;;5.40;4.37;;;27.00;1.00;;;;;;6136859;23;20382;-67
2021/06/11 08:01:26;;;;;;;6.37;4.73;;;26.70;1.00;;;;;;6150516;23;20829;-68
2021/06/11 08:03:52;;;;;;;4.17;3.73;;;26.40;1.00;;;;;;6137228;23;20139;-68
2021/06/11 08:06:17;;;;;;;3.80;3.50;;;25.60;1.00;;;;;;6150441;23;20469;-68
2021/06/11 08:08:43;;;;;;;8.00;3.97;;;25.30;1.00;;;;;;6136691;23;21018;-67
2021/06/11 08:11:08;;;;;;;4.97;4.43;;;24.80;1.00;;;;;;6135581;23;20162;-68
2021/06/11 08:13:34;;;;;;;4.57;4.17;;;24.90;1.00;;;;;;6134715;23;20162;-66
2021/06/11 08:15:59;;;;;;;4.67;3.43;;;24.90;1.00;;;;;;6135995;23;20183;-65
2021/06/11 08:18:25;;;;;;;4.37;3.63;;;25.30;1.00;;;;;;6136147;23;20155;-67
2021/06/11 08:20:51;;;;;;;4.00;3.23;;;25.80;1.00;;;;;;6136858;23;20239;-67
2021/06/11 08:23:16;;;;;;;4.40;4.00;;;25.70;1.00;;;;;;6138166;23;20158;-66
2021/06/11 08:25:42;;;;;;;4.67;3.47;;;25.80;1.00;;;;;;6138266;23;20161;-65
2021/06/11 08:28:08;;;;;;;4.70;4.30;;;26.00;1.00;;;;;;6137872;23;20386;-63
2021/06/11 08:30:33;;;;;;;3.43;3.13;;;26.00;1.00;;;;;;6138333;23;20155;-66
2021/06/11 08:33:00;;;;;;;3.53;3.23;;;26.40;1.00;;;;;;6137914;23;20559;-68
2021/06/11 08:35:27;;;;;;;3.37;3.07;;;26.50;1.00;;;;;;6127255;23;20163;-69
2021/06/11 08:37:53;;;;;;;4.60;4.20;;;26.50;1.00;;;;;;6138110;23;20387;-72
2021/06/11 08:40:18;;;;;;;4.83;4.43;;;26.60;1.00;;;;;;6151729;23;20464;-69
2021/06/11 08:42:45;;;;;;;4.23;3.80;;;26.80;1.00;;;;;;6138371;23;20151;-70
2021/06/11 08:45:12;;;;;;;4.27;3.87;;;25.80;1.00;;;;;;6138114;23;20215;-67
2021/06/11 08:47:39;;;;;;;6.70;3.53;;;25.30;1.00;;;;;;6138213;23;20394;-69
2021/06/11 08:50:05;;;;;;;4.27;3.87;;;25.00;1.00;;;;;;6151444;23;20398;-69
2021/06/11 08:52:31;;;;;;;8.40;4.47;;;25.20;1.00;;;;;;6138366;23;20391;-69
2021/06/11 08:54:58;;;;;;;5.50;4.93;;;25.20;1.00;;;;;;6138148;23;20750;-70
2021/06/11 08:57:24;;;;;;;7.47;5.53;;;24.70;1.00;;;;;;6137965;23;20609;-69
2021/06/11 08:59:52;;;;;;;5.80;4.20;;;24.70;1.00;;;;;;6137906;23;20383;-70
2021/06/11 09:02:19;;;;;;;6.73;4.93;;;24.80;1.00;;;;;;6138105;23;20417;-70
2021/06/11 09:04:47;;;;;;;7.50;5.13;;;24.80;1.00;;;;;;6138069;23;20394;-70
2021/06/11 09:07:29;;;;;;;6.90;4.40;;;24.90;1.00;;;;;;6151642;23;20403;-70
2021/06/11 09:10:06;;;;;;;5.43;4.93;;;24.90;1.00;;;;;;6137917;23;20390;-70
2021/06/11 09:12:39;;;;;;;6.63;5.10;;;24.70;1.00;;;;;;6138152;23;20374;-70
2021/06/11 09:15:07;;;;;;;7.17;5.20;;;24.40;1.00;;;;;;6137964;23;20425;-69
2021/06/11 09:17:45;;;;;;;5.97;5.40;;;24.70;1.00;;;;;;6151313;23;20509;-70
2021/06/11 09:20:15;;;;;;;6.23;5.63;;;24.90;1.00;;;;;;6137959;23;20370;-70
2021/06/11 09:22:54;;;;;;;7.67;6.03;;;24.80;1.00;;;;;;6137899;23;20401;-67
2021/06/11 09:25:34;;;;;;;6.20;5.57;;;24.40;1.00;;;;;;6137750;23;20449;-69
2021/06/11 09:28:09;;;;;;;8.70;6.20;;;25.00;1.00;;;;;;6137819;23;20410;-68
2021/06/11 09:30:37;;;;;;;8.20;5.10;;;25.10;1.00;;;;;;6137826;23;20375;-69
2021/06/11 09:33:08;;;;;;;7.40;4.90;;;25.20;1.00;;;;;;6136833;23;20379;-69
2021/06/11 09:35:39;;;;;;;4.60;4.20;;;25.10;1.00;;;;;;6137960;23;20418;-69
2021/06/11 09:38:18;;;;;;;4.57;4.17;;;25.30;1.00;;;;;;6137990;23;20375;-69
2021/06/11 09:40:50;;;;;;;4.87;4.37;;;25.80;1.00;;;;;;6137977;23;20385;-69
2021/06/11 09:43:16;;;;;;;5.73;5.13;;;25.50;1.00;;;;;;6137738;23;20371;-71
2021/06/11 09:45:43;;;;;;;6.80;5.67;;;25.30;1.00;;;;;;6137796;23;20465;-69
2021/06/11 09:48:24;;;;;;;5.73;4.80;;;25.30;1.00;;;;;;6137695;23;20390;-69
2021/06/11 09:50:51;;;;;;;5.27;4.77;;;25.80;1.00;;;;;;6137768;23;20378;-68
2021/06/11 09:53:22;;;;;;;7.40;4.73;;;25.80;1.00;;;;;;6137536;23;20402;-70
2021/06/11 09:55:51;;;;;;;9.17;5.60;;;26.00;1.00;;;;;;6128166;23;20838;-68
2021/06/11 09:58:24;;;;;;;5.70;5.10;;;26.10;1.00;;;;;;6135805;23;20867;-67
2021/06/11 10:00:58;;;;;;;5.70;5.10;;;26.20;1.00;;;;;;6137581;23;20760;-70
2021/06/11 10:03:35;;;;;;;6.63;5.97;;;25.80;1.00;;;;;;6137548;23;20853;-69
2021/06/11 10:06:07;;;;;;;6.90;5.33;;;25.30;1.00;;;;;;6138040;23;20402;-69
2021/06/11 10:08:33;;;;;;;5.90;5.30;;;25.40;1.00;;;;;;6128258;23;20394;-69
2021/06/11 10:11:01;;;;;;;7.30;6.00;;;25.80;1.00;;;;;;6137584;23;20391;-69
2021/06/11 10:13:27;;;;;;;6.67;5.93;;;25.70;1.00;;;;;;6137382;23;20389;-69
2021/06/11 10:15:55;;;;;;;6.83;5.33;;;25.90;1.00;;;;;;6137393;23;20438;-72
2021/06/11 10:18:21;;;;;;;6.93;5.93;;;26.30;1.00;;;;;;6137382;23;20155;-70
2021/06/11 10:20:47;;;;;;;7.33;6.60;;;26.20;1.00;;;;;;6137608;23;20474;-67
2021/06/11 10:23:16;;;;;;;7.10;6.40;;;25.40;1.00;;;;;;6137460;23;20383;-70
2021/06/11 10:25:46;;;;;;;6.33;5.73;;;25.00;1.00;;;;;;6137468;23;20387;-71
2021/06/11 10:28:21;;;;;;;6.50;5.90;;;24.80;1.00;;;;;;6137040;23;20440;-71
2021/06/11 10:30:48;;;;;;;6.33;5.40;;;24.80;1.00;;;;;;6137298;23;20383;-69
2021/06/11 10:33:13;;;;;;;5.73;5.23;;;25.30;1.00;;;;;;6137008;23;20386;-69
2021/06/11 10:35:47;;;;;;;6.00;5.50;;;25.30;1.00;;;;;;6137326;23;20425;-67
2021/06/11 10:38:35;;;;;;;6.70;5.70;;;25.10;1.00;;;;;;6127667;23;20194;-66
2021/06/11 10:41:05;;;;;;;6.23;5.03;;;25.60;1.00;;;;;;6127770;23;20469;-69
2021/06/11 10:43:38;;;;;;;6.50;5.60;;;25.50;1.00;;;;;;6137377;23;20387;-68
2021/06/11 10:46:25;;;;;;;6.40;5.80;;;25.90;1.00;;;;;;6137207;23;20401;-68
2021/06/11 10:48:56;;;;;;;9.57;5.40;;;26.20;1.00;;;;;;6136759;23;20408;-69
2021/06/11 10:51:48;;;;;;;6.10;5.10;;;26.30;1.00;;;;;;6137098;23;20395;-71
2021/06/11 10:54:19;;;;;;;7.03;5.43;;;26.70;1.00;;;;;;6136415;23;20394;-69
2021/06/11 10:56:57;;;;;;;7.60;5.10;;;27.30;1.00;;;;;;6136510;23;20508;-68
2021/06/11 10:59:36;;;;;;;7.17;6.57;;;27.20;1.00;;;;;;6136575;23;20393;-69
2021/06/11 11:02:04;;;;;;;6.33;5.73;;;26.80;1.00;;;;;;6136727;23;20374;-68
2021/06/11 11:04:35;;;;;;;7.00;6.30;;;26.30;1.00;;;;;;6136318;23;20383;-69
2021/06/11 11:07:23;;;;;;;7.00;6.30;;;26.10;1.00;;;;;;6136425;23;20386;-70
2021/06/11 11:10:00;;;;;;;6.20;5.60;;;26.10;1.00;;;;;;6136371;23;20424;-69
2021/06/11 11:12:29;;;;;;;6.77;6.07;;;26.10;1.00;;;;;;6136496;23;20400;-68
2021/06/11 11:14:57;;;;;;;7.60;6.90;;;26.10;1.00;;;;;;6136613;23;20410;-68
2021/06/11 11:17:22;;;;;;;6.80;6.10;;;26.00;1.00;;;;;;6136412;23;20458;-67
2021/06/11 11:19:54;;;;;;;6.83;6.23;;;25.90;1.00;;;;;;6136610;23;20397;-67
2021/06/11 11:22:26;;;;;;;6.20;5.60;;;25.90;1.00;;;;;;6136589;23;20465;-68
2021/06/11 11:24:52;;;;;;;7.27;6.57;;;26.50;1.00;;;;;;6136763;23;20378;-69
2021/06/11 11:27:18;;;;;;;6.73;5.60;;;26.60;1.00;;;;;;6136383;23;20690;-67
2021/06/11 11:29:44;;;;;;;6.90;5.63;;;26.20;1.00;;;;;;6136392;23;20395;-69
2021/06/11 11:32:10;;;;;;;6.47;5.43;;;26.00;1.00;;;;;;6136170;23;20393;-68
2021/06/11 11:34:35;;;;;;;5.53;5.03;;;25.80;1.00;;;;;;6136778;23;20458;-67
2021/06/11 11:37:01;;;;;;;5.13;4.73;;;26.10;1.00;;;;;;6136528;23;20189;-67
2021/06/11 11:39:26;;;;;;;5.90;5.40;;;26.50;1.00;;;;;;6136607;23;20242;-67
2021/06/11 11:41:56;;;;;;;6.00;5.50;;;26.60;1.00;;;;;;6136863;23;20143;-68
2021/06/11 11:44:23;;;;;;;8.00;6.10;;;26.90;1.00;;;;;;6136721;23;20151;-68
2021/06/11 11:46:49;;;;;;;6.77;6.17;;;27.40;1.00;;;;;;6136904;23;20394;-68
2021/06/11 11:49:15;;;;;;;8.17;7.33;;;27.40;1.00;;;;;;6136767;23;20391;-68
2021/06/11 11:51:41;;;;;;;7.03;6.33;;;26.70;1.00;;;;;;6136333;23;20406;-68
2021/06/11 11:54:07;;;;;;;7.30;6.67;;;26.00;1.00;;;;;;6136852;23;20876;-66
2021/06/11 11:56:33;;;;;;;6.10;5.57;;;26.00;1.00;;;;;;6149412;23;20496;-66
2021/06/11 11:58:58;;;;;;;6.33;5.63;;;26.10;1.00;;;;;;6136344;23;20386;-67
2021/06/11 12:01:41;;;;;;;7.27;6.50;;;26.30;1.00;;;;;;6094534;23;20179;-66
2021/06/11 12:04:07;;;;;;;6.60;6.00;;;26.60;1.00;;;;;;6126776;23;20817;-67
2021/06/11 12:06:32;;;;;;;6.23;5.20;;;26.60;1.00;;;;;;6136087;23;20430;-67
2021/06/11 12:08:58;;;;;;;6.47;5.87;;;26.00;1.00;;;;;;6136995;23;20151;-65
2021/06/11 12:11:24;;;;;;;6.33;5.83;;;25.80;1.00;;;;;;6136344;23;20158;-65
2021/06/11 12:13:49;;;;;;;7.63;5.33;;;25.70;1.00;;;;;;6136488;23;20167;-67
2021/06/11 12:16:16;;;;;;;6.93;4.93;;;26.00;1.00;;;;;;6136326;23;20186;-65
2021/06/11 12:18:42;;;;;;;5.10;4.60;;;26.70;1.00;;;;;;6136411;23;20151;-65
2021/06/11 12:21:09;;;;;;;5.40;4.90;;;27.00;1.00;;;;;;6136319;23;20837;-69
2021/06/11 12:23:35;;;;;;;4.13;3.50;;;27.10;1.00;;;;;;6136534;23;20303;-67
2021/06/11 12:26:01;;;;;;;4.23;3.83;;;27.70;1.00;;;;;;6136240;23;20390;-66
2021/06/11 12:28:26;;;;;;;3.53;3.23;;;27.90;1.00;;;;;;6136002;23;20760;-67
2021/06/11 12:30:52;;;;;;;4.63;3.97;;;27.30;1.00;;;;;;6136386;23;20510;-67
2021/06/11 12:33:18;;;;;;;4.97;4.47;;;27.10;1.00;;;;;;6149285;23;20162;-67
2021/06/11 12:35:43;;;;;;;4.90;4.40;;;27.70;1.00;;;;;;6136444;23;20182;-67
2021/06/11 12:38:09;;;;;;;6.70;4.20;;;27.50;1.00;;;;;;6136209;23;20162;-68
2021/06/11 12:40:37;;;;;;;5.23;4.73;;;27.10;1.00;;;;;;6136380;23;20464;-68
2021/06/11 12:43:04;;;;;;;4.40;4.00;;;27.50;1.00;;;;;;6136449;23;20159;-67
2021/06/11 12:45:32;;;;;;;4.87;4.47;;;27.90;1.00;;;;;;6136579;23;20401;-66
2021/06/11 12:47:58;;;;;;;4.50;4.10;;;28.10;1.00;;;;;;6136069;23;20777;-68
2021/06/11 12:50:24;;;;;;;4.60;4.10;;;28.30;1.00;;;;;;6136266;23;20469;-67